sensor_id;sensor_type;location;lat;lon;timestamp;pressure;altitude;pressure_sealevel;temperature;humidity
9525;BME280;15940;48.734;9.112;2022-12-07T00:01:44;96607.91;;;2.90;88.77
9525;BME280;15940;48.734;9.112;2022-12-07T00:04:14;96604.88;;;3.01;88.24
9525;BME280;15940;48.734;9.112;2022-12-07T00:06:45;96605.53;;;3.05;87.53
9525;BME280;15940;48.734;9.112;2022-12-07T00:09:14;96607.25;;;2.99;87.02
9525;BME280;15940;48.734;9.112;2022-12-07T00:11:41;96603.28;;;3.03;87.61
9525;BME280;15940;48.734;9.112;2022-12-07T00:14:12;96597.78;;;3.07;87.07
9525;BME280;15940;48.734;9.112;2022-12-07T00:16:40;96602.19;;;3.01;88.05
9525;BME280;15940;48.734;9.112;2022-12-07T00:19:09;96603.00;;;3.10;87.98
9525;BME280;15940;48.734;9.112;2022-12-07T00:21:36;96606.50;;;3.20;86.71
9525;BME280;15940;48.734;9.112;2022-12-07T00:24:06;96603.69;;;3.02;87.17
9525;BME280;15940;48.734;9.112;2022-12-07T00:26:34;96609.41;;;2.91;86.35
9525;BME280;15940;48.734;9.112;2022-12-07T00:29:04;96607.47;;;2.92;88.12
9525;BME280;15940;48.734;9.112;2022-12-07T00:31:35;96601.81;;;2.90;87.99
9525;BME280;15940;48.734;9.112;2022-12-07T00:34:04;96604.28;;;2.84;87.42
9525;BME280;15940;48.734;9.112;2022-12-07T00:36:32;96595.78;;;2.76;87.58
9525;BME280;15940;48.734;9.112;2022-12-07T00:39:00;96602.50;;;2.81;87.97
9525;BME280;15940;48.734;9.112;2022-12-07T00:41:30;96597.94;;;2.69;87.26
9525;BME280;15940;48.734;9.112;2022-12-07T00:43:57;96594.59;;;2.77;88.74
9525;BME280;15940;48.734;9.112;2022-12-07T00:46:25;96593.94;;;2.73;87.93
9525;BME280;15940;48.734;9.112;2022-12-07T00:48:53;96598.75;;;2.78;88.55
9525;BME280;15940;48.734;9.112;2022-12-07T00:51:22;96594.75;;;2.96;88.51
9525;BME280;15940;48.734;9.112;2022-12-07T00:53:50;96591.19;;;2.99;88.11
9525;BME280;15940;48.734;9.112;2022-12-07T00:56:20;96592.50;;;2.94;87.29
9525;BME280;15940;48.734;9.112;2022-12-07T00:58:52;96596.69;;;2.82;86.19
9525;BME280;15940;48.734;9.112;2022-12-07T01:01:21;96598.09;;;2.87;86.90
9525;BME280;15940;48.734;9.112;2022-12-07T01:03:48;96600.19;;;2.92;86.54
9525;BME280;15940;48.734;9.112;2022-12-07T01:06:17;96604.94;;;2.88;86.85
9525;BME280;15940;48.734;9.112;2022-12-07T01:08:44;96595.94;;;2.95;85.86
9525;BME280;15940;48.734;9.112;2022-12-07T01:11:15;96585.63;;;2.93;87.00
9525;BME280;15940;48.734;9.112;2022-12-07T01:13:43;96603.97;;;2.95;85.52
9525;BME280;15940;48.734;9.112;2022-12-07T01:16:14;96600.94;;;2.93;85.16
9525;BME280;15940;48.734;9.112;2022-12-07T01:18:41;96597.53;;;2.92;85.34
9525;BME280;15940;48.734;9.112;2022-12-07T01:21:12;96594.31;;;2.97;86.25
9525;BME280;15940;48.734;9.112;2022-12-07T01:23:40;96597.78;;;3.07;85.62
9525;BME280;15940;48.734;9.112;2022-12-07T01:26:12;96598.47;;;2.98;84.85
9525;BME280;15940;48.734;9.112;2022-12-07T01:28:39;96608.50;;;2.72;84.05
9525;BME280;15940;48.734;9.112;2022-12-07T01:31:08;96597.28;;;2.77;85.78
9525;BME280;15940;48.734;9.112;2022-12-07T01:33:39;96611.91;;;2.85;86.54
9525;BME280;15940;48.734;9.112;2022-12-07T01:36:08;96606.97;;;2.84;84.93
9525;BME280;15940;48.734;9.112;2022-12-07T01:38:39;96617.72;;;2.71;85.34
9525;BME280;15940;48.734;9.112;2022-12-07T01:41:07;96608.19;;;2.70;86.33
9525;BME280;15940;48.734;9.112;2022-12-07T01:43:35;96609.59;;;2.62;85.98
9525;BME280;15940;48.734;9.112;2022-12-07T01:46:03;96617.28;;;2.73;86.67
9525;BME280;15940;48.734;9.112;2022-12-07T01:48:33;96626.97;;;2.57;86.44
9525;BME280;15940;48.734;9.112;2022-12-07T01:51:05;96612.81;;;2.70;86.00
9525;BME280;15940;48.734;9.112;2022-12-07T01:53:36;96616.53;;;2.72;86.38
9525;BME280;15940;48.734;9.112;2022-12-07T01:56:04;96617.47;;;2.78;86.14
9525;BME280;15940;48.734;9.112;2022-12-07T01:58:32;96617.63;;;2.75;85.69
9525;BME280;15940;48.734;9.112;2022-12-07T02:01:00;96615.88;;;2.81;85.52
9525;BME280;15940;48.734;9.112;2022-12-07T02:03:31;96619.72;;;2.80;84.80
9525;BME280;15940;48.734;9.112;2022-12-07T02:05:59;96616.31;;;2.79;84.72
9525;BME280;15940;48.734;9.112;2022-12-07T02:08:27;96617.91;;;2.77;86.21
9525;BME280;15940;48.734;9.112;2022-12-07T02:10:55;96619.41;;;2.78;84.75
9525;BME280;15940;48.734;9.112;2022-12-07T02:13:25;96618.31;;;2.88;85.67
9525;BME280;15940;48.734;9.112;2022-12-07T02:16:10;96611.91;;;2.85;85.59
9525;BME280;15940;48.734;9.112;2022-12-07T02:18:52;96611.47;;;2.87;85.57
9525;BME280;15940;48.734;9.112;2022-12-07T02:21:32;96613.34;;;2.99;85.17
9525;BME280;15940;48.734;9.112;2022-12-07T02:24:36;96616.75;;;3.00;84.71
9525;BME280;15940;48.734;9.112;2022-12-07T02:27:37;96607.75;;;2.84;85.54
9525;BME280;15940;48.734;9.112;2022-12-07T02:30:08;96604.63;;;2.86;85.50
9525;BME280;15940;48.734;9.112;2022-12-07T02:32:44;96596.41;;;2.80;84.92
9525;BME280;15940;48.734;9.112;2022-12-07T02:35:19;96606.28;;;2.71;85.26
9525;BME280;15940;48.734;9.112;2022-12-07T02:37:58;96598.63;;;2.82;85.93
9525;BME280;15940;48.734;9.112;2022-12-07T02:40:33;96600.13;;;2.83;86.42
9525;BME280;15940;48.734;9.112;2022-12-07T02:43:08;96595.72;;;2.89;85.67
9525;BME280;15940;48.734;9.112;2022-12-07T02:45:41;96595.97;;;2.82;85.46
9525;BME280;15940;48.734;9.112;2022-12-07T02:48:14;96592.53;;;2.81;85.96
9525;BME280;15940;48.734;9.112;2022-12-07T02:50:45;96598.28;;;2.93;85.55
9525;BME280;15940;48.734;9.112;2022-12-07T02:53:31;96588.31;;;2.93;85.02
9525;BME280;15940;48.734;9.112;2022-12-07T02:56:00;96595.50;;;2.96;85.03
9525;BME280;15940;48.734;9.112;2022-12-07T02:58:39;96600.16;;;3.05;84.82
9525;BME280;15940;48.734;9.112;2022-12-07T03:01:19;96590.50;;;3.07;84.51
9525;BME280;15940;48.734;9.112;2022-12-07T03:04:15;96580.28;;;2.93;83.91
9525;BME280;15940;48.734;9.112;2022-12-07T03:06:51;96579.91;;;2.82;83.80
9525;BME280;15940;48.734;9.112;2022-12-07T03:09:25;96581.38;;;2.96;84.91
9525;BME280;15940;48.734;9.112;2022-12-07T03:12:01;96576.88;;;2.93;84.46
9525;BME280;15940;48.734;9.112;2022-12-07T03:14:35;96578.34;;;2.94;84.96
9525;BME280;15940;48.734;9.112;2022-12-07T03:17:12;96574.03;;;2.87;84.89
9525;BME280;15940;48.734;9.112;2022-12-07T03:19:41;96581.44;;;2.70;83.84
9525;BME280;15940;48.734;9.112;2022-12-07T03:22:12;96581.97;;;2.78;85.21
9525;BME280;15940;48.734;9.112;2022-12-07T03:24:44;96573.28;;;2.86;84.94
9525;BME280;15940;48.734;9.112;2022-12-07T03:27:16;96577.38;;;2.78;84.88
9525;BME280;15940;48.734;9.112;2022-12-07T03:29:49;96577.81;;;2.64;85.20
9525;BME280;15940;48.734;9.112;2022-12-07T03:32:25;96577.13;;;2.51;84.60
9525;BME280;15940;48.734;9.112;2022-12-07T03:35:00;96575.06;;;2.68;85.88
9525;BME280;15940;48.734;9.112;2022-12-07T03:37:33;96570.09;;;2.79;85.70
9525;BME280;15940;48.734;9.112;2022-12-07T03:40:07;96567.72;;;2.81;84.45
9525;BME280;15940;48.734;9.112;2022-12-07T03:42:38;96566.97;;;2.80;84.88
9525;BME280;15940;48.734;9.112;2022-12-07T03:45:07;96569.47;;;2.75;84.63
9525;BME280;15940;48.734;9.112;2022-12-07T03:47:43;96570.56;;;2.65;84.62
9525;BME280;15940;48.734;9.112;2022-12-07T03:50:16;96560.28;;;2.63;84.19
9525;BME280;15940;48.734;9.112;2022-12-07T03:52:52;96569.25;;;2.69;86.32
9525;BME280;15940;48.734;9.112;2022-12-07T03:55:25;96571.81;;;2.73;85.14
9525;BME280;15940;48.734;9.112;2022-12-07T03:57:57;96569.81;;;2.64;84.80
9525;BME280;15940;48.734;9.112;2022-12-07T04:00:26;96561.25;;;2.69;84.70
9525;BME280;15940;48.734;9.112;2022-12-07T04:02:55;96564.78;;;2.66;84.23
9525;BME280;15940;48.734;9.112;2022-12-07T04:05:22;96570.91;;;2.54;84.09
9525;BME280;15940;48.734;9.112;2022-12-07T04:07:50;96562.03;;;2.57;85.78
9525;BME280;15940;48.734;9.112;2022-12-07T04:10:17;96565.03;;;2.46;85.11
9525;BME280;15940;48.734;9.112;2022-12-07T04:12:44;96558.63;;;2.44;85.23
9525;BME280;15940;48.734;9.112;2022-12-07T04:15:11;96560.84;;;2.58;84.90
9525;BME280;15940;48.734;9.112;2022-12-07T04:17:38;96553.81;;;2.51;84.89
9525;BME280;15940;48.734;9.112;2022-12-07T04:20:09;96559.06;;;2.42;84.14
9525;BME280;15940;48.734;9.112;2022-12-07T04:22:36;96554.44;;;2.55;85.44
9525;BME280;15940;48.734;9.112;2022-12-07T04:25:04;96562.72;;;2.70;84.63
9525;BME280;15940;48.734;9.112;2022-12-07T04:27:31;96558.50;;;2.82;84.19
9525;BME280;15940;48.734;9.112;2022-12-07T04:29:58;96558.50;;;2.82;83.87
9525;BME280;15940;48.734;9.112;2022-12-07T04:32:25;96561.81;;;2.86;83.73
9525;BME280;15940;48.734;9.112;2022-12-07T04:34:52;96562.50;;;2.77;84.22
9525;BME280;15940;48.734;9.112;2022-12-07T04:37:20;96554.59;;;2.74;82.89
9525;BME280;15940;48.734;9.112;2022-12-07T04:39:47;96551.50;;;2.75;83.82
9525;BME280;15940;48.734;9.112;2022-12-07T04:42:14;96550.03;;;2.62;83.55
9525;BME280;15940;48.734;9.112;2022-12-07T04:44:41;96547.41;;;2.49;82.53
9525;BME280;15940;48.734;9.112;2022-12-07T04:47:08;96537.47;;;2.49;83.13
9525;BME280;15940;48.734;9.112;2022-12-07T04:49:35;96536.16;;;2.54;82.85
9525;BME280;15940;48.734;9.112;2022-12-07T04:52:03;96530.53;;;2.39;82.92
9525;BME280;15940;48.734;9.112;2022-12-07T04:54:31;96528.84;;;2.33;82.62
9525;BME280;15940;48.734;9.112;2022-12-07T04:56:58;96527.63;;;2.46;83.54
9525;BME280;15940;48.734;9.112;2022-12-07T04:59:25;96521.66;;;2.42;81.13
9525;BME280;15940;48.734;9.112;2022-12-07T05:01:52;96521.53;;;2.46;80.93
9525;BME280;15940;48.734;9.112;2022-12-07T05:04:19;96518.38;;;2.38;80.51
9525;BME280;15940;48.734;9.112;2022-12-07T05:06:46;96515.56;;;2.42;80.22
9525;BME280;15940;48.734;9.112;2022-12-07T05:09:13;96504.41;;;2.21;77.39
9525;BME280;15940;48.734;9.112;2022-12-07T05:11:41;96511.19;;;2.00;79.49
9525;BME280;15940;48.734;9.112;2022-12-07T05:14:13;96508.19;;;1.98;80.20
9525;BME280;15940;48.734;9.112;2022-12-07T05:16:42;96518.88;;;1.86;79.18
9525;BME280;15940;48.734;9.112;2022-12-07T05:19:10;96514.38;;;1.95;81.94
9525;BME280;15940;48.734;9.112;2022-12-07T05:21:38;96521.44;;;1.89;81.78
9525;BME280;15940;48.734;9.112;2022-12-07T05:24:07;96508.50;;;2.00;81.71
9525;BME280;15940;48.734;9.112;2022-12-07T05:26:35;96515.03;;;1.99;80.56
9525;BME280;15940;48.734;9.112;2022-12-07T05:29:04;96508.19;;;1.98;82.08
9525;BME280;15940;48.734;9.112;2022-12-07T05:31:31;96510.09;;;1.98;79.72
9525;BME280;15940;48.734;9.112;2022-12-07T05:33:59;96522.09;;;1.81;80.55
9525;BME280;15940;48.734;9.112;2022-12-07T05:36:26;96519.09;;;1.79;81.07
9525;BME280;15940;48.734;9.112;2022-12-07T05:38:56;96525.63;;;1.65;80.98
9525;BME280;15940;48.734;9.112;2022-12-07T05:41:23;96532.00;;;1.42;79.38
9525;BME280;15940;48.734;9.112;2022-12-07T05:44:09;96531.25;;;1.29;80.96
9525;BME280;15940;48.734;9.112;2022-12-07T05:46:36;96526.16;;;1.34;82.18
9525;BME280;15940;48.734;9.112;2022-12-07T05:49:03;96528.16;;;1.18;81.28
9525;BME280;15940;48.734;9.112;2022-12-07T05:51:30;96538.81;;;1.18;82.14
9525;BME280;15940;48.734;9.112;2022-12-07T05:53:57;96541.59;;;1.14;82.16
9525;BME280;15940;48.734;9.112;2022-12-07T05:56:25;96549.34;;;0.96;82.01
9525;BME280;15940;48.734;9.112;2022-12-07T05:58:53;96544.69;;;0.83;83.03
9525;BME280;15940;48.734;9.112;2022-12-07T06:01:39;96549.84;;;0.91;84.38
9525;BME280;15940;48.734;9.112;2022-12-07T06:04:06;96555.44;;;1.09;85.83
9525;BME280;15940;48.734;9.112;2022-12-07T06:06:33;96551.47;;;1.01;84.90
9525;BME280;15940;48.734;9.112;2022-12-07T06:09:00;96555.03;;;1.10;84.82
9525;BME280;15940;48.734;9.112;2022-12-07T06:11:27;96553.78;;;1.28;85.02
9525;BME280;15940;48.734;9.112;2022-12-07T06:14:12;96550.59;;;1.46;84.51
9525;BME280;15940;48.734;9.112;2022-12-07T06:16:41;96551.66;;;1.35;82.65
9525;BME280;15940;48.734;9.112;2022-12-07T06:19:08;96553.16;;;1.49;83.71
9525;BME280;15940;48.734;9.112;2022-12-07T06:21:35;96545.59;;;1.60;83.48
9525;BME280;15940;48.734;9.112;2022-12-07T06:24:02;96552.22;;;1.68;83.18
9525;BME280;15940;48.734;9.112;2022-12-07T06:26:29;96549.31;;;1.88;82.91
9525;BME280;15940;48.734;9.112;2022-12-07T06:28:56;96545.78;;;2.04;82.55
9525;BME280;15940;48.734;9.112;2022-12-07T06:31:23;96550.69;;;2.06;81.98
9525;BME280;15940;48.734;9.112;2022-12-07T06:33:57;96556.78;;;2.06;81.82
9525;BME280;15940;48.734;9.112;2022-12-07T06:36:24;96565.44;;;2.10;82.14
9525;BME280;15940;48.734;9.112;2022-12-07T06:38:51;96566.94;;;1.98;81.39
9525;BME280;15940;48.734;9.112;2022-12-07T06:41:18;96566.19;;;1.98;81.21
9525;BME280;15940;48.734;9.112;2022-12-07T06:43:45;96557.44;;;2.10;82.63
9525;BME280;15940;48.734;9.112;2022-12-07T06:46:12;96543.63;;;2.24;81.21
9525;BME280;15940;48.734;9.112;2022-12-07T06:48:39;96557.38;;;2.36;80.85
9525;BME280;15940;48.734;9.112;2022-12-07T06:51:08;96563.06;;;2.25;80.72
9525;BME280;15940;48.734;9.112;2022-12-07T06:53:35;96566.47;;;2.25;81.41
9525;BME280;15940;48.734;9.112;2022-12-07T06:56:03;96562.41;;;2.34;80.73
9525;BME280;15940;48.734;9.112;2022-12-07T06:58:30;96561.22;;;2.35;80.72
9525;BME280;15940;48.734;9.112;2022-12-07T07:00:57;96554.66;;;2.14;79.32
9525;BME280;15940;48.734;9.112;2022-12-07T07:03:24;96544.97;;;1.82;80.49
9525;BME280;15940;48.734;9.112;2022-12-07T07:05:51;96554.91;;;1.81;81.09
9525;BME280;15940;48.734;9.112;2022-12-07T07:08:20;96552.63;;;1.80;79.78
9525;BME280;15940;48.734;9.112;2022-12-07T07:10:47;96559.81;;;1.83;81.69
9525;BME280;15940;48.734;9.112;2022-12-07T07:13:13;96556.06;;;1.80;81.12
9525;BME280;15940;48.734;9.112;2022-12-07T07:15:40;96555.22;;;1.83;80.36
9525;BME280;15940;48.734;9.112;2022-12-07T07:18:08;96566.22;;;1.85;79.59
9525;BME280;15940;48.734;9.112;2022-12-07T07:20:37;96563.66;;;1.82;79.80
9525;BME280;15940;48.734;9.112;2022-12-07T07:23:04;96566.94;;;1.98;80.92
9525;BME280;15940;48.734;9.112;2022-12-07T07:25:33;96558.94;;;1.98;79.97
9525;BME280;15940;48.734;9.112;2022-12-07T07:28:00;96570.25;;;2.03;80.96
9525;BME280;15940;48.734;9.112;2022-12-07T07:30:27;96573.56;;;2.19;80.75
9525;BME280;15940;48.734;9.112;2022-12-07T07:32:56;96574.63;;;2.22;79.77
9525;BME280;15940;48.734;9.112;2022-12-07T07:35:24;96580.91;;;2.41;79.13
9525;BME280;15940;48.734;9.112;2022-12-07T07:37:51;96568.06;;;2.48;79.69
9525;BME280;15940;48.734;9.112;2022-12-07T07:40:18;96592.03;;;2.39;78.71
9525;BME280;15940;48.734;9.112;2022-12-07T07:42:49;96582.50;;;2.38;77.45
9525;BME280;15940;48.734;9.112;2022-12-07T07:45:16;96586.03;;;2.48;79.34
9525;BME280;15940;48.734;9.112;2022-12-07T07:47:43;96591.38;;;2.35;77.32
9525;BME280;15940;48.734;9.112;2022-12-07T07:50:10;96592.56;;;2.34;78.62
9525;BME280;15940;48.734;9.112;2022-12-07T07:52:38;96593.59;;;2.49;78.74
9525;BME280;15940;48.734;9.112;2022-12-07T07:55:06;96589.88;;;2.47;77.14
9525;BME280;15940;48.734;9.112;2022-12-07T07:57:34;96593.00;;;2.33;77.69
9525;BME280;15940;48.734;9.112;2022-12-07T08:00:04;96589.88;;;2.34;79.62
9525;BME280;15940;48.734;9.112;2022-12-07T08:02:32;96594.44;;;2.59;78.24
9525;BME280;15940;48.734;9.112;2022-12-07T08:04:59;96593.59;;;2.37;77.96
9525;BME280;15940;48.734;9.112;2022-12-07T08:07:27;96592.03;;;2.26;77.94
9525;BME280;15940;48.734;9.112;2022-12-07T08:09:54;96586.13;;;2.44;78.74
9525;BME280;15940;48.734;9.112;2022-12-07T08:12:21;96584.72;;;2.52;78.62
9525;BME280;15940;48.734;9.112;2022-12-07T08:14:48;96586.94;;;2.67;78.40
9525;BME280;15940;48.734;9.112;2022-12-07T08:17:16;96585.47;;;2.88;77.90
9525;BME280;15940;48.734;9.112;2022-12-07T08:19:43;96585.56;;;2.84;77.04
9525;BME280;15940;48.734;9.112;2022-12-07T08:22:10;96589.25;;;2.77;76.44
9525;BME280;15940;48.734;9.112;2022-12-07T08:24:37;96585.81;;;2.77;76.92
9525;BME280;15940;48.734;9.112;2022-12-07T08:27:05;96588.44;;;2.68;75.86
9525;BME280;15940;48.734;9.112;2022-12-07T08:29:32;96597.19;;;2.68;76.76
9525;BME280;15940;48.734;9.112;2022-12-07T08:31:59;96592.91;;;2.71;75.43
9525;BME280;15940;48.734;9.112;2022-12-07T08:34:28;96595.28;;;2.91;76.24
9525;BME280;15940;48.734;9.112;2022-12-07T08:36:55;96592.06;;;2.96;75.15
9525;BME280;15940;48.734;9.112;2022-12-07T08:39:22;96599.34;;;2.95;74.20
9525;BME280;15940;48.734;9.112;2022-12-07T08:41:49;96607.25;;;2.99;74.62
9525;BME280;15940;48.734;9.112;2022-12-07T08:44:16;96603.81;;;2.98;74.92
9525;BME280;15940;48.734;9.112;2022-12-07T08:46:47;96596.69;;;3.17;74.96
9525;BME280;15940;48.734;9.112;2022-12-07T08:49:18;96606.41;;;3.24;74.05
9525;BME280;15940;48.734;9.112;2022-12-07T08:51:48;96600.34;;;3.32;73.78
9525;BME280;15940;48.734;9.112;2022-12-07T08:54:17;96602.09;;;3.26;73.19
9525;BME280;15940;48.734;9.112;2022-12-07T08:56:45;96603.78;;;3.33;71.31
9525;BME280;15940;48.734;9.112;2022-12-07T08:59:15;96603.44;;;3.09;72.18
9525;BME280;15940;48.734;9.112;2022-12-07T09:01:44;96601.81;;;3.11;73.21
9525;BME280;15940;48.734;9.112;2022-12-07T09:04:11;96600.53;;;3.38;74.68
9525;BME280;15940;48.734;9.112;2022-12-07T09:06:38;96602.31;;;3.41;71.83
9525;BME280;15940;48.734;9.112;2022-12-07T09:09:07;96601.91;;;3.42;71.86
9525;BME280;15940;48.734;9.112;2022-12-07T09:11:35;96604.69;;;3.39;70.85
9525;BME280;15940;48.734;9.112;2022-12-07T09:14:02;96602.25;;;3.54;72.35
9525;BME280;15940;48.734;9.112;2022-12-07T09:16:29;96603.00;;;3.54;72.46
9525;BME280;15940;48.734;9.112;2022-12-07T09:18:56;96598.88;;;3.62;71.54
9525;BME280;15940;48.734;9.112;2022-12-07T09:21:23;96603.16;;;3.60;72.41
9525;BME280;15940;48.734;9.112;2022-12-07T09:23:50;96605.28;;;3.65;71.12
9525;BME280;15940;48.734;9.112;2022-12-07T09:26:19;96601.03;;;3.77;72.30
9525;BME280;15940;48.734;9.112;2022-12-07T09:28:46;96598.69;;;3.88;71.93
9525;BME280;15940;48.734;9.112;2022-12-07T09:31:13;96602.44;;;3.90;71.10
9525;BME280;15940;48.734;9.112;2022-12-07T09:33:40;96598.31;;;3.98;71.59
9525;BME280;15940;48.734;9.112;2022-12-07T09:36:07;96596.38;;;3.99;71.07
9525;BME280;15940;48.734;9.112;2022-12-07T09:38:35;96597.75;;;4.13;70.57
9525;BME280;15940;48.734;9.112;2022-12-07T09:41:06;96599.41;;;4.19;70.87
9525;BME280;15940;48.734;9.112;2022-12-07T09:43:35;96592.44;;;4.31;70.12
9525;BME280;15940;48.734;9.112;2022-12-07T09:46:05;96592.28;;;4.25;71.10
9525;BME280;15940;48.734;9.112;2022-12-07T09:48:35;96596.63;;;4.32;70.06
9525;BME280;15940;48.734;9.112;2022-12-07T09:51:14;96589.19;;;4.27;70.66
9525;BME280;15940;48.734;9.112;2022-12-07T09:53:43;96580.94;;;4.21;70.62
9525;BME280;15940;48.734;9.112;2022-12-07T09:56:12;96584.81;;;4.20;70.22
9525;BME280;15940;48.734;9.112;2022-12-07T09:58:42;96576.38;;;4.31;71.04
9525;BME280;15940;48.734;9.112;2022-12-07T10:01:15;96576.22;;;4.44;68.96
9525;BME280;15940;48.734;9.112;2022-12-07T10:03:49;96577.72;;;4.45;68.71
9525;BME280;15940;48.734;9.112;2022-12-07T10:06:17;96577.41;;;4.43;69.59
9525;BME280;15940;48.734;9.112;2022-12-07T10:08:44;96578.16;;;4.34;69.04
9525;BME280;15940;48.734;9.112;2022-12-07T10:11:12;96569.06;;;4.32;69.36
9525;BME280;15940;48.734;9.112;2022-12-07T10:13:43;96564.72;;;4.25;70.59
9525;BME280;15940;48.734;9.112;2022-12-07T10:16:37;96561.47;;;4.39;70.84
9525;BME280;15940;48.734;9.112;2022-12-07T10:19:26;96558.19;;;4.44;70.48
9525;BME280;15940;48.734;9.112;2022-12-07T10:22:04;96554.78;;;4.62;69.91
9525;BME280;15940;48.734;9.112;2022-12-07T10:24:32;96552.13;;;4.80;68.80
9525;BME280;15940;48.734;9.112;2022-12-07T10:26:59;96554.66;;;4.84;68.70
9525;BME280;15940;48.734;9.112;2022-12-07T10:29:32;96548.56;;;4.74;69.28
9525;BME280;15940;48.734;9.112;2022-12-07T10:32:02;96547.50;;;4.81;69.29
9525;BME280;15940;48.734;9.112;2022-12-07T10:34:32;96549.88;;;4.79;67.75
9525;BME280;15940;48.734;9.112;2022-12-07T10:37:16;96542.88;;;4.72;69.14
9525;BME280;15940;48.734;9.112;2022-12-07T10:39:48;96540.34;;;4.59;69.44
9525;BME280;15940;48.734;9.112;2022-12-07T10:42:21;96552.84;;;4.72;69.07
9525;BME280;15940;48.734;9.112;2022-12-07T10:45:08;96550.03;;;4.84;68.75
9525;BME280;15940;48.734;9.112;2022-12-07T10:47:38;96551.06;;;4.96;68.73
9525;BME280;15940;48.734;9.112;2022-12-07T10:50:52;96543.94;;;4.75;69.21
9525;BME280;15940;48.734;9.112;2022-12-07T10:53:47;96539.44;;;4.81;69.35
9525;BME280;15940;48.734;9.112;2022-12-07T10:56:42;96543.59;;;4.91;68.10
9525;BME280;15940;48.734;9.112;2022-12-07T10:59:53;96541.25;;;4.75;68.73
9525;BME280;15940;48.734;9.112;2022-12-07T11:02:41;96533.19;;;4.47;69.05
9525;BME280;15940;48.734;9.112;2022-12-07T11:05:23;96529.16;;;4.43;68.91
9525;BME280;15940;48.734;9.112;2022-12-07T11:08:03;96527.81;;;4.47;70.39
9525;BME280;15940;48.734;9.112;2022-12-07T11:10:40;96516.78;;;4.73;68.78
9525;BME280;15940;48.734;9.112;2022-12-07T11:13:29;96520.06;;;4.95;69.56
9525;BME280;15940;48.734;9.112;2022-12-07T11:16:27;96520.31;;;5.15;69.12
9525;BME280;15940;48.734;9.112;2022-12-07T11:19:24;96520.47;;;5.21;68.64
9525;BME280;15940;48.734;9.112;2022-12-07T11:21:57;96524.03;;;5.27;68.56
9525;BME280;15940;48.734;9.112;2022-12-07T11:24:32;96520.59;;;5.27;67.62
9525;BME280;15940;48.734;9.112;2022-12-07T11:27:13;96506.28;;;5.11;67.13
9525;BME280;15940;48.734;9.112;2022-12-07T11:30:14;96510.94;;;5.02;68.91
9525;BME280;15940;48.734;9.112;2022-12-07T11:33:08;96505.44;;;5.05;68.47
9525;BME280;15940;48.734;9.112;2022-12-07T11:35:49;96510.53;;;4.94;69.72
9525;BME280;15940;48.734;9.112;2022-12-07T11:38:24;96506.94;;;4.97;70.41
9525;BME280;15940;48.734;9.112;2022-12-07T11:41:00;96499.78;;;4.94;68.91
9525;BME280;15940;48.734;9.112;2022-12-07T11:43:53;96502.50;;;4.85;69.34
9525;BME280;15940;48.734;9.112;2022-12-07T11:46:26;96495.91;;;4.86;69.86
9525;BME280;15940;48.734;9.112;2022-12-07T11:49:03;96485.31;;;4.92;69.94
9525;BME280;15940;48.734;9.112;2022-12-07T11:51:37;96493.06;;;4.99;69.34
9525;BME280;15940;48.734;9.112;2022-12-07T11:54:14;96485.16;;;5.04;69.64
9525;BME280;15940;48.734;9.112;2022-12-07T11:56:44;96485.16;;;5.04;68.91
9525;BME280;15940;48.734;9.112;2022-12-07T11:59:19;96481.00;;;5.03;69.60
9525;BME280;15940;48.734;9.112;2022-12-07T12:01:56;96476.94;;;5.08;70.28
9525;BME280;15940;48.734;9.112;2022-12-07T12:04:39;96467.72;;;4.91;69.23
9525;BME280;15940;48.734;9.112;2022-12-07T12:07:17;96476.25;;;4.62;69.93
9525;BME280;15940;48.734;9.112;2022-12-07T12:09:50;96471.16;;;4.73;71.46
9525;BME280;15940;48.734;9.112;2022-12-07T12:12:48;96468.09;;;4.56;71.46
9525;BME280;15940;48.734;9.112;2022-12-07T12:15:30;96466.72;;;4.51;71.45
9525;BME280;15940;48.734;9.112;2022-12-07T12:18:28;96469.28;;;4.55;72.29
9525;BME280;15940;48.734;9.112;2022-12-07T12:21:04;96468.22;;;4.52;72.14
9525;BME280;15940;48.734;9.112;2022-12-07T12:23:40;96469.41;;;4.51;72.74
9525;BME280;15940;48.734;9.112;2022-12-07T12:26:16;96462.72;;;4.38;73.38
9525;BME280;15940;48.734;9.112;2022-12-07T12:28:52;96456.44;;;4.41;72.50
9525;BME280;15940;48.734;9.112;2022-12-07T12:31:35;96463.44;;;4.11;74.10
9525;BME280;15940;48.734;9.112;2022-12-07T12:34:38;96465.84;;;4.18;74.02
9525;BME280;15940;48.734;9.112;2022-12-07T12:37:42;96458.81;;;4.11;75.34
9525;BME280;15940;48.734;9.112;2022-12-07T12:40:41;96465.22;;;4.14;75.08
9525;BME280;15940;48.734;9.112;2022-12-07T12:43:50;96456.88;;;4.03;76.78
9525;BME280;15940;48.734;9.112;2022-12-07T12:46:52;96461.31;;;3.96;76.85
9525;BME280;15940;48.734;9.112;2022-12-07T12:53:02;96466.06;;;3.74;77.54
9525;BME280;15940;48.734;9.112;2022-12-07T12:56:29;96458.28;;;3.67;76.89
9525;BME280;15940;48.734;9.112;2022-12-07T12:59:26;96456.03;;;3.56;77.48
9525;BME280;15940;48.734;9.112;2022-12-07T13:02:07;96450.88;;;3.71;77.16
9525;BME280;15940;48.734;9.112;2022-12-07T13:05:02;96446.84;;;3.76;76.78
9525;BME280;15940;48.734;9.112;2022-12-07T13:07:57;96439.72;;;3.82;77.32
9525;BME280;15940;48.734;9.112;2022-12-07T13:10:39;96440.19;;;3.89;77.85
9525;BME280;15940;48.734;9.112;2022-12-07T13:13:39;96439.31;;;3.92;75.37
9525;BME280;15940;48.734;9.112;2022-12-07T13:16:40;96433.78;;;3.96;76.76
9525;BME280;15940;48.734;9.112;2022-12-07T13:19:56;96428.59;;;4.01;76.82
9525;BME280;15940;48.734;9.112;2022-12-07T13:22:52;96422.31;;;3.95;75.09
9525;BME280;15940;48.734;9.112;2022-12-07T13:25:38;96425.16;;;3.92;75.68
9525;BME280;15940;48.734;9.112;2022-12-07T13:28:16;96417.84;;;3.83;75.77
9525;BME280;15940;48.734;9.112;2022-12-07T13:31:00;96422.59;;;3.88;75.35
9525;BME280;15940;48.734;9.112;2022-12-07T13:33:30;96430.34;;;3.86;75.78
9525;BME280;15940;48.734;9.112;2022-12-07T13:35:57;96422.19;;;3.90;74.73
9525;BME280;15940;48.734;9.112;2022-12-07T13:38:29;96429.50;;;4.08;76.31
9525;BME280;15940;48.734;9.112;2022-12-07T13:41:14;96430.66;;;4.07;74.33
9525;BME280;15940;48.734;9.112;2022-12-07T13:43:48;96424.28;;;4.04;75.08
9525;BME280;15940;48.734;9.112;2022-12-07T13:46:15;96406.25;;;4.05;75.30
9525;BME280;15940;48.734;9.112;2022-12-07T13:48:46;96419.53;;;4.08;74.29
9525;BME280;15940;48.734;9.112;2022-12-07T13:51:20;96419.63;;;3.95;72.63
9525;BME280;15940;48.734;9.112;2022-12-07T13:53:50;96417.59;;;4.09;73.79
9525;BME280;15940;48.734;9.112;2022-12-07T13:56:22;96416.84;;;4.08;71.92
9525;BME280;15940;48.734;9.112;2022-12-07T13:58:52;96420.38;;;3.96;73.65